createdAt,value
2023-03-05T00:01:09.159Z,2.90
2023-03-05T00:03:36.277Z,8.43
2023-03-05T00:06:03.604Z,3.37
2023-03-05T00:08:30.909Z,6.33
2023-03-05T00:11:01.371Z,8.13
2023-03-05T00:13:28.775Z,3.97
2023-03-05T00:15:55.722Z,4.43
2023-03-05T00:18:23.346Z,2.50
2023-03-05T00:20:50.571Z,5.60
2023-03-05T00:23:17.407Z,9.60
2023-03-05T00:25:46.007Z,11.17
2023-03-05T00:28:13.620Z,4.00
2023-03-05T00:30:40.830Z,6.40
2023-03-05T00:33:08.313Z,5.50
2023-03-05T00:35:43.091Z,4.37
2023-03-05T00:38:10.399Z,8.50
2023-03-05T00:40:39.092Z,7.60
2023-03-05T00:43:07.167Z,12.50
2023-03-05T00:45:33.925Z,7.30
2023-03-05T00:48:00.775Z,7.87
2023-03-05T00:50:27.793Z,5.30
2023-03-05T00:52:54.615Z,10.10
2023-03-05T00:55:21.990Z,4.50
2023-03-05T00:57:48.761Z,7.93
2023-03-05T01:00:16.580Z,8.40
2023-03-05T01:02:43.710Z,6.13
2023-03-05T01:05:14.471Z,6.40
2023-03-05T01:07:41.829Z,6.60
2023-03-05T01:10:09.379Z,7.83
2023-03-05T01:12:36.230Z,4.40
2023-03-05T01:15:03.915Z,5.73
2023-03-05T01:17:30.690Z,10.80
2023-03-05T01:19:57.376Z,11.00
2023-03-05T01:22:24.150Z,6.57
2023-03-05T01:24:50.981Z,6.93
2023-03-05T01:27:17.770Z,5.97
2023-03-05T01:29:44.561Z,8.37
2023-03-05T01:32:11.305Z,5.43
2023-03-05T01:34:38.081Z,8.60
2023-03-05T01:37:05.146Z,8.90
2023-03-05T01:39:32.004Z,8.10
2023-03-05T01:41:58.742Z,4.17
2023-03-05T01:44:30.300Z,6.97
2023-03-05T01:46:57.784Z,9.60
2023-03-05T01:49:39.983Z,12.80
2023-03-05T01:52:20.077Z,4.60
2023-03-05T01:54:50.910Z,5.53
2023-03-05T01:57:26.612Z,5.30
2023-03-05T01:59:57.939Z,3.23
2023-03-05T02:02:25.641Z,6.70
2023-03-05T02:05:00.622Z,5.20
2023-03-05T02:07:28.037Z,7.10
2023-03-05T02:09:54.847Z,5.93
2023-03-05T02:12:21.888Z,9.63
2023-03-05T02:14:59.263Z,8.63
2023-03-05T02:17:27.943Z,11.03
2023-03-05T02:20:02.257Z,7.40
2023-03-05T02:22:29.214Z,8.33
2023-03-05T02:24:55.924Z,7.20
2023-03-05T02:27:34.803Z,6.80
2023-03-05T02:30:02.331Z,6.47
2023-03-05T02:32:29.079Z,13.40
2023-03-05T02:34:55.800Z,9.33
2023-03-05T02:37:22.533Z,5.80
2023-03-05T02:39:49.246Z,12.07
2023-03-05T02:42:15.961Z,9.60
2023-03-05T02:44:42.723Z,8.40
2023-03-05T02:47:09.395Z,5.00
2023-03-05T02:49:36.053Z,6.80
2023-03-05T02:52:02.819Z,5.00
2023-03-05T02:54:29.542Z,5.40
2023-03-05T02:56:56.302Z,3.00
2023-03-05T02:59:23.416Z,4.60
2023-03-05T03:01:50.116Z,2.83
2023-03-05T03:04:16.831Z,2.80
2023-03-05T03:06:43.569Z,4.70
2023-03-05T03:09:10.251Z,4.60
2023-03-05T03:11:36.956Z,4.33
2023-03-05T03:14:03.790Z,6.43
2023-03-05T03:16:30.532Z,5.17
2023-03-05T03:18:57.271Z,2.23
2023-03-05T03:21:25.584Z,3.47
2023-03-05T03:23:52.864Z,3.00
2023-03-05T03:26:20.031Z,5.80
2023-03-05T03:28:46.972Z,1.93
2023-03-05T03:31:14.038Z,3.20
2023-03-05T03:33:40.861Z,4.73
2023-03-05T03:36:08.043Z,3.20
2023-03-05T03:38:34.959Z,6.60
2023-03-05T03:41:01.880Z,8.13
2023-03-05T03:43:28.562Z,7.77
2023-03-05T03:45:55.310Z,3.90
2023-03-05T03:48:22.062Z,7.30
2023-03-05T03:50:48.783Z,7.27
2023-03-05T03:53:17.346Z,5.27
2023-03-05T03:55:46.399Z,3.60
2023-03-05T03:58:13.468Z,4.70
2023-03-05T04:00:41.572Z,5.90
2023-03-05T04:03:09.187Z,3.57
2023-03-05T04:05:35.965Z,7.30
2023-03-05T04:08:03.483Z,3.27
2023-03-05T04:10:30.375Z,4.93
2023-03-05T04:12:57.131Z,6.57
2023-03-05T04:15:25.000Z,3.63
2023-03-05T04:17:51.925Z,3.03
2023-03-05T04:20:18.876Z,5.10
2023-03-05T04:22:45.630Z,3.70
2023-03-05T04:25:12.448Z,3.70
2023-03-05T04:27:40.292Z,7.77
2023-03-05T04:30:08.825Z,2.30
2023-03-05T04:32:35.588Z,5.83
2023-03-05T04:35:02.460Z,5.80
2023-03-05T04:37:29.244Z,5.10
2023-03-05T04:39:55.917Z,3.90
2023-03-05T04:42:22.683Z,5.23
2023-03-05T04:44:50.439Z,6.43
2023-03-05T04:47:18.366Z,4.20
2023-03-05T04:49:45.533Z,4.90
2023-03-05T04:52:14.223Z,4.43
2023-03-05T04:54:41.171Z,4.60
2023-03-05T04:57:08.524Z,6.13
2023-03-05T04:59:36.292Z,8.67
2023-03-05T05:02:03.146Z,8.90
2023-03-05T05:04:30.178Z,4.67
2023-03-05T05:06:57.847Z,8.27
2023-03-05T05:09:25.530Z,9.60
2023-03-05T05:11:52.331Z,9.63
2023-03-05T05:14:19.487Z,10.93
2023-03-05T05:16:46.195Z,9.87
2023-03-05T05:19:13.143Z,4.50
2023-03-05T05:21:40.135Z,8.90
2023-03-05T05:24:07.167Z,8.13
2023-03-05T05:26:33.911Z,7.00
2023-03-05T05:29:00.804Z,8.30
2023-03-05T05:31:27.593Z,8.97
2023-03-05T05:33:54.366Z,6.87
2023-03-05T05:36:22.359Z,5.23
2023-03-05T05:38:49.400Z,6.30
2023-03-05T05:41:17.906Z,8.40
2023-03-05T05:43:45.312Z,7.80
2023-03-05T05:46:17.684Z,12.03
2023-03-05T05:48:45.140Z,9.40
2023-03-05T05:51:18.249Z,8.00
2023-03-05T05:53:46.070Z,13.10
2023-03-05T05:56:14.646Z,9.37
2023-03-05T05:58:41.900Z,9.63
2023-03-05T06:01:14.584Z,10.50
2023-03-05T06:03:41.394Z,11.17
2023-03-05T06:06:10.787Z,16.40
2023-03-05T06:08:37.560Z,19.40
2023-03-05T06:11:04.704Z,14.83
2023-03-05T06:13:31.641Z,14.43
2023-03-05T06:16:04.995Z,16.30
2023-03-05T06:18:32.898Z,20.47
2023-03-05T06:21:14.081Z,14.10
2023-03-05T06:23:41.233Z,12.30
2023-03-05T06:26:09.400Z,13.27
2023-03-05T06:28:36.159Z,15.53
2023-03-05T06:31:11.777Z,12.37
2023-03-05T06:33:39.237Z,14.00
2023-03-05T06:36:07.999Z,11.83
2023-03-05T06:38:35.518Z,14.90
2023-03-05T06:41:05.644Z,14.23
2023-03-05T06:43:33.543Z,13.80
2023-03-05T06:46:10.132Z,15.43
2023-03-05T06:48:36.992Z,9.33
2023-03-05T06:51:03.871Z,10.97
2023-03-05T06:53:30.636Z,7.23
2023-03-05T06:55:57.471Z,8.93
2023-03-05T06:58:24.190Z,13.00
2023-03-05T07:00:51.078Z,8.73
2023-03-05T07:03:17.938Z,8.20
2023-03-05T07:05:45.018Z,6.53
2023-03-05T07:08:11.761Z,10.10
2023-03-05T07:10:43.872Z,10.47
2023-03-05T07:13:11.046Z,6.10
2023-03-05T07:15:39.915Z,8.57
2023-03-05T07:18:07.089Z,8.10
2023-03-05T07:20:37.793Z,5.47
2023-03-05T07:23:04.902Z,10.47
2023-03-05T07:25:32.467Z,7.33
2023-03-05T07:27:59.308Z,5.80
2023-03-05T07:30:26.056Z,12.93
2023-03-05T07:32:52.837Z,9.97
2023-03-05T07:35:19.628Z,10.83
2023-03-05T07:37:46.515Z,11.33
2023-03-05T07:40:13.397Z,5.30
2023-03-05T07:42:40.236Z,6.87
2023-03-05T07:45:07.617Z,8.13
2023-03-05T07:47:34.555Z,6.83
2023-03-05T07:50:01.663Z,5.03
2023-03-05T07:52:28.476Z,8.17
2023-03-05T07:54:55.223Z,7.97
2023-03-05T07:57:21.929Z,9.43
2023-03-05T07:59:48.637Z,8.13
2023-03-05T08:02:15.550Z,9.93
2023-03-05T08:04:43.289Z,8.57
2023-03-05T08:07:10.127Z,9.37
2023-03-05T08:09:36.828Z,8.13
2023-03-05T08:12:03.685Z,7.10
2023-03-05T08:14:30.525Z,8.70
2023-03-05T08:16:57.541Z,11.00
2023-03-05T08:19:24.239Z,12.60
2023-03-05T08:21:51.092Z,12.73
2023-03-05T08:24:17.787Z,12.93
2023-03-05T08:26:44.734Z,9.40
2023-03-05T08:29:11.798Z,11.63
2023-03-05T08:31:39.247Z,12.60
2023-03-05T08:34:06.869Z,13.50
2023-03-05T08:36:33.594Z,17.30
2023-03-05T08:39:00.507Z,16.93
2023-03-05T08:41:27.331Z,15.37
2023-03-05T08:43:54.128Z,19.43
2023-03-05T08:46:20.970Z,20.40
2023-03-05T08:48:47.694Z,19.43
2023-03-05T08:51:17.168Z,14.13
2023-03-05T08:53:44.950Z,18.03
2023-03-05T08:56:12.055Z,17.40
2023-03-05T08:58:39.461Z,13.57
2023-03-05T09:01:06.910Z,10.60
2023-03-05T09:03:33.718Z,14.50
2023-03-05T09:06:02.695Z,12.30
2023-03-05T09:08:30.355Z,11.17
2023-03-05T09:10:57.778Z,12.60
2023-03-05T09:13:24.726Z,12.47
2023-03-05T09:16:00.012Z,12.83
2023-03-05T09:18:27.328Z,17.77
2023-03-05T09:20:54.138Z,12.70
2023-03-05T09:23:21.641Z,15.90
2023-03-05T09:25:49.428Z,17.47
2023-03-05T09:28:16.560Z,15.80
2023-03-05T09:30:43.363Z,15.40
2023-03-05T09:33:10.052Z,16.03
2023-03-05T09:35:37.266Z,14.80
2023-03-05T09:38:04.359Z,15.53
2023-03-05T09:40:55.164Z,15.47
2023-03-05T09:43:49.651Z,13.73
2023-03-05T09:46:54.747Z,15.77
2023-03-05T09:50:01.489Z,11.57
2023-03-05T09:52:54.118Z,13.50
2023-03-05T09:55:27.404Z,11.47
2023-03-05T09:57:58.449Z,11.83
2023-03-05T10:00:49.202Z,10.03
2023-03-05T10:03:59.779Z,9.93
2023-03-05T10:06:36.808Z,12.00
2023-03-05T10:09:32.520Z,8.30
2023-03-05T10:12:13.510Z,8.07
2023-03-05T10:14:41.452Z,7.70
2023-03-05T10:17:21.658Z,8.13
2023-03-05T10:19:53.847Z,11.80
2023-03-05T10:22:31.755Z,10.17
2023-03-05T10:25:02.888Z,15.70
2023-03-05T10:27:54.077Z,11.63
2023-03-05T10:30:54.768Z,15.77
2023-03-05T10:33:32.190Z,10.40
2023-03-05T10:36:27.001Z,12.47
2023-03-05T10:39:04.829Z,10.30
2023-03-05T10:42:02.619Z,11.50
2023-03-05T10:44:44.109Z,11.07
2023-03-05T10:47:25.414Z,11.97
2023-03-05T10:49:57.069Z,15.23
2023-03-05T10:52:38.068Z,10.10
2023-03-05T10:55:20.822Z,11.90
2023-03-05T10:57:48.100Z,10.83
2023-03-05T11:00:32.241Z,9.60
2023-03-05T11:03:05.411Z,11.30
2023-03-05T11:05:38.316Z,17.67
2023-03-05T11:08:35.019Z,9.10
2023-03-05T11:11:14.206Z,7.93
2023-03-05T11:13:57.797Z,7.77
2023-03-05T11:16:31.519Z,7.10
2023-03-05T11:19:17.645Z,7.27
2023-03-05T11:21:46.628Z,8.60
2023-03-05T11:24:16.953Z,7.57
2023-03-05T11:26:58.077Z,8.07
2023-03-05T11:29:27.733Z,7.17
2023-03-05T11:31:55.128Z,7.57
2023-03-05T11:34:35.265Z,8.40
2023-03-05T11:37:04.604Z,11.67
2023-03-05T11:39:34.699Z,9.93
2023-03-05T11:42:04.246Z,20.30
2023-03-05T11:44:48.179Z,8.07
2023-03-05T11:47:37.751Z,8.47
2023-03-05T11:50:12.544Z,10.07
2023-03-05T11:53:09.632Z,11.93
2023-03-05T11:55:50.072Z,9.37
2023-03-05T11:58:32.166Z,8.93
2023-03-05T12:01:01.315Z,6.93
2023-03-05T12:03:35.009Z,7.20
2023-03-05T12:06:31.358Z,7.57
2023-03-05T12:09:02.663Z,5.77
2023-03-05T12:11:32.351Z,5.97
2023-03-05T12:14:19.262Z,8.90
2023-03-05T12:16:51.959Z,5.30
2023-03-05T12:19:37.439Z,7.17
2023-03-05T12:22:05.446Z,5.80
2023-03-05T12:24:33.574Z,7.30
2023-03-05T12:27:03.124Z,6.40
2023-03-05T12:29:29.751Z,4.47
2023-03-05T12:31:57.802Z,4.40
2023-03-05T12:34:48.406Z,3.93
2023-03-05T12:37:35.069Z,4.37
2023-03-05T12:40:12.614Z,7.80
2023-03-05T12:42:39.286Z,3.57
2023-03-05T12:45:11.875Z,2.53
2023-03-05T12:48:11.996Z,2.73
2023-03-05T12:50:38.740Z,3.63
2023-03-05T12:53:18.252Z,2.80
2023-03-05T12:55:45.837Z,6.37
2023-03-05T12:58:33.908Z,1.50
2023-03-05T13:01:34.171Z,3.23
2023-03-05T13:04:11.092Z,2.67
2023-03-05T13:06:39.396Z,1.80
2023-03-05T13:09:21.031Z,2.03
2023-03-05T13:11:54.215Z,2.90
2023-03-05T13:14:43.681Z,4.30
2023-03-05T13:17:40.099Z,2.60
2023-03-05T13:20:33.813Z,2.30
2023-03-05T13:23:20.612Z,2.77
2023-03-05T13:26:02.224Z,2.87
2023-03-05T13:28:30.468Z,2.70
2023-03-05T13:31:12.370Z,6.33
2023-03-05T13:33:39.138Z,3.53
2023-03-05T13:36:06.778Z,4.60
2023-03-05T13:38:40.456Z,3.37
2023-03-05T13:41:28.146Z,2.70
2023-03-05T13:44:00.721Z,5.53
2023-03-05T13:46:38.936Z,3.97
2023-03-05T13:49:22.358Z,2.90
2023-03-05T13:51:57.289Z,3.80
2023-03-05T13:54:25.540Z,10.67
2023-03-05T13:57:01.782Z,6.53
2023-03-05T13:59:31.530Z,4.17
2023-03-05T14:02:17.131Z,6.53
2023-03-05T14:04:45.380Z,8.00
2023-03-05T14:07:30.884Z,4.37
2023-03-05T14:09:58.260Z,5.67
2023-03-05T14:12:42.594Z,4.87
2023-03-05T14:15:27.995Z,4.50
2023-03-05T14:18:12.995Z,3.70
2023-03-05T14:20:58.585Z,5.40
2023-03-05T14:23:29.014Z,6.37
2023-03-05T14:26:17.997Z,4.70
2023-03-05T14:28:54.327Z,9.00
2023-03-05T14:31:22.496Z,8.23
2023-03-05T14:33:51.345Z,13.70
2023-03-05T14:36:29.345Z,7.20
2023-03-05T14:38:56.955Z,9.27
2023-03-05T14:41:35.288Z,7.10
2023-03-05T14:44:02.245Z,9.00
2023-03-05T14:46:29.061Z,7.10
2023-03-05T14:48:55.948Z,6.40
2023-03-05T14:51:23.860Z,6.53
2023-03-05T14:53:53.390Z,4.73
2023-03-05T14:56:28.838Z,5.00
2023-03-05T14:58:57.581Z,6.13
2023-03-05T15:01:25.290Z,7.07
2023-03-05T15:03:52.303Z,7.23
2023-03-05T15:06:33.002Z,8.10
2023-03-05T15:09:04.680Z,10.03
2023-03-05T15:11:31.583Z,6.83
2023-03-05T15:13:58.339Z,7.73
2023-03-05T15:16:25.195Z,6.97
2023-03-05T15:18:51.911Z,7.83
2023-03-05T15:21:20.220Z,8.23
2023-03-05T15:23:46.958Z,8.00
2023-03-05T15:26:14.872Z,7.03
2023-03-05T15:28:42.381Z,8.70
2023-03-05T15:31:09.519Z,6.30
2023-03-05T15:33:37.803Z,5.97
2023-03-05T15:36:05.077Z,5.83
2023-03-05T15:38:31.848Z,6.40
2023-03-05T15:41:01.559Z,6.20
2023-03-05T15:43:30.502Z,6.27
2023-03-05T15:45:57.290Z,9.97
2023-03-05T15:48:24.171Z,5.83
2023-03-05T15:50:50.932Z,5.37
2023-03-05T15:53:17.990Z,4.30
2023-03-05T15:55:46.062Z,5.17
2023-03-05T15:58:16.608Z,5.23
2023-03-05T16:00:44.287Z,4.50
2023-03-05T16:03:11.255Z,6.00
2023-03-05T16:05:38.838Z,4.20
2023-03-05T16:08:06.578Z,4.03
2023-03-05T16:10:33.815Z,4.30
2023-03-05T16:13:07.871Z,3.97
2023-03-05T16:15:35.531Z,4.50
2023-03-05T16:18:07.980Z,5.30
2023-03-05T16:20:36.230Z,6.07
2023-03-05T16:23:04.306Z,6.40
2023-03-05T16:25:31.359Z,7.50
2023-03-05T16:27:58.414Z,10.33
2023-03-05T16:30:25.238Z,8.90
2023-03-05T16:32:53.718Z,9.60
2023-03-05T16:35:20.817Z,8.33
2023-03-05T16:37:47.796Z,9.50
2023-03-05T16:40:15.409Z,6.60
2023-03-05T16:42:42.520Z,9.00
2023-03-05T16:45:11.365Z,6.10
2023-03-05T16:47:39.069Z,7.33
2023-03-05T16:50:07.652Z,7.30
2023-03-05T16:52:34.929Z,8.30
2023-03-05T16:55:01.832Z,6.17
2023-03-05T16:57:28.969Z,7.20
2023-03-05T16:59:56.891Z,8.30
2023-03-05T17:02:23.563Z,7.73
2023-03-05T17:04:50.644Z,10.93
2023-03-05T17:07:17.892Z,6.00
2023-03-05T17:09:44.751Z,10.17
2023-03-05T17:12:11.429Z,11.03
2023-03-05T17:14:38.237Z,12.17
2023-03-05T17:17:04.965Z,6.80
2023-03-05T17:19:32.123Z,6.40
2023-03-05T17:21:58.863Z,9.47
2023-03-05T17:24:26.145Z,13.80
2023-03-05T17:26:52.933Z,8.23
2023-03-05T17:29:19.979Z,7.00
2023-03-05T17:31:48.870Z,7.97
2023-03-05T17:34:16.680Z,8.30
2023-03-05T17:36:45.228Z,10.17
2023-03-05T17:39:13.174Z,9.17
2023-03-05T17:41:39.911Z,15.77
2023-03-05T17:44:06.723Z,10.40
2023-03-05T17:46:33.504Z,7.40
2023-03-05T17:49:00.261Z,7.83
2023-03-05T17:51:27.036Z,11.67
2023-03-05T17:53:53.945Z,8.60
2023-03-05T17:56:22.096Z,9.60
2023-03-05T17:58:49.788Z,26.90
2023-03-05T18:01:28.886Z,9.80
2023-03-05T18:03:56.006Z,10.43
2023-03-05T18:06:23.462Z,9.30
2023-03-05T18:08:50.379Z,8.70
2023-03-05T18:11:17.520Z,9.80
2023-03-05T18:13:44.658Z,7.50
2023-03-05T18:16:14.193Z,8.23
2023-03-05T18:18:41.773Z,7.47
2023-03-05T18:21:08.767Z,8.27
2023-03-05T18:23:36.441Z,7.57
2023-03-05T18:26:03.383Z,6.80
2023-03-05T18:28:30.040Z,7.17
2023-03-05T18:30:57.036Z,6.67
2023-03-05T18:33:25.166Z,7.43
2023-03-05T18:35:53.582Z,11.80
2023-03-05T18:38:26.189Z,8.00
2023-03-05T18:40:55.177Z,9.07
2023-03-05T18:43:23.624Z,7.10
2023-03-05T18:45:52.186Z,14.60
2023-03-05T18:48:19.501Z,7.20
2023-03-05T18:50:49.556Z,6.33
2023-03-05T18:53:16.655Z,7.60
2023-03-05T18:55:43.488Z,6.70
2023-03-05T18:58:10.641Z,5.10
2023-03-05T19:00:37.352Z,4.97
2023-03-05T19:03:05.665Z,6.20
2023-03-05T19:05:32.547Z,8.40
2023-03-05T19:07:59.745Z,10.23
2023-03-05T19:10:27.369Z,4.97
2023-03-05T19:13:15.713Z,6.90
2023-03-05T19:15:42.600Z,5.10
2023-03-05T19:18:09.582Z,5.50
2023-03-05T19:20:36.284Z,6.90
2023-03-05T19:23:03.251Z,10.53
2023-03-05T19:25:29.994Z,10.70
2023-03-05T19:27:56.754Z,10.60
2023-03-05T19:30:23.577Z,13.73
2023-03-05T19:32:50.381Z,11.37
2023-03-05T19:35:18.568Z,10.87
2023-03-05T19:37:45.933Z,12.10
2023-03-05T19:40:14.164Z,10.73
2023-03-05T19:42:40.922Z,10.67
2023-03-05T19:45:08.344Z,10.50
2023-03-05T19:47:35.206Z,11.10
2023-03-05T19:50:02.223Z,11.10
2023-03-05T19:52:28.953Z,10.53
2023-03-05T19:54:55.898Z,12.93
2023-03-05T19:57:22.701Z,12.50
2023-03-05T19:59:53.342Z,11.63
2023-03-05T20:02:21.922Z,10.10
2023-03-05T20:04:49.582Z,9.07
2023-03-05T20:07:16.572Z,8.40
2023-03-05T20:09:43.424Z,11.43
2023-03-05T20:12:10.332Z,13.33
2023-03-05T20:14:37.334Z,10.53
2023-03-05T20:17:04.176Z,10.10
2023-03-05T20:19:30.920Z,9.50
2023-03-05T20:21:57.731Z,10.67
2023-03-05T20:24:24.576Z,9.07
2023-03-05T20:26:51.347Z,9.33
2023-03-05T20:29:18.879Z,10.67
2023-03-05T20:31:47.080Z,10.40
2023-03-05T20:34:16.684Z,10.77
2023-03-05T20:36:44.163Z,13.33
2023-03-05T20:39:10.927Z,10.80
2023-03-05T20:41:39.473Z,13.50
2023-03-05T20:44:07.879Z,11.93
2023-03-05T20:46:49.614Z,10.90
2023-03-05T20:49:16.375Z,13.60
2023-03-05T20:51:43.137Z,13.00
2023-03-05T20:54:12.997Z,12.63
2023-03-05T20:56:39.956Z,12.60
2023-03-05T20:59:08.842Z,12.73
2023-03-05T21:01:38.137Z,12.40
2023-03-05T21:04:06.174Z,12.07
2023-03-05T21:06:33.456Z,15.00
2023-03-05T21:09:00.546Z,11.87
2023-03-05T21:11:27.643Z,11.87
2023-03-05T21:13:54.434Z,14.40
2023-03-05T21:16:24.006Z,13.20
2023-03-05T21:18:51.878Z,11.93
2023-03-05T21:21:19.240Z,12.80
2023-03-05T21:23:47.071Z,14.03
2023-03-05T21:26:13.944Z,14.10
2023-03-05T21:28:41.030Z,12.17
2023-03-05T21:31:10.635Z,12.47
2023-03-05T21:33:37.774Z,14.33
2023-03-05T21:36:05.124Z,13.20
2023-03-05T21:38:33.942Z,15.43
2023-03-05T21:41:01.338Z,13.97
2023-03-05T21:43:28.995Z,15.40
2023-03-05T21:45:57.233Z,27.27
2023-03-05T21:48:24.929Z,19.47
2023-03-05T21:50:52.508Z,15.10
2023-03-05T21:53:20.215Z,14.40
2023-03-05T21:56:03.032Z,18.90
2023-03-05T21:58:34.587Z,15.37
2023-03-05T22:01:02.044Z,15.27
2023-03-05T22:03:29.421Z,14.07
2023-03-05T22:05:56.990Z,12.83
2023-03-05T22:08:24.221Z,14.70
2023-03-05T22:10:51.641Z,15.77
2023-03-05T22:13:20.143Z,15.20
2023-03-05T22:15:52.633Z,12.90
2023-03-05T22:18:22.026Z,13.87
2023-03-05T22:20:49.457Z,12.17
2023-03-05T22:23:17.318Z,15.27
2023-03-05T22:25:44.612Z,11.60
2023-03-05T22:28:12.800Z,13.50
2023-03-05T22:30:44.411Z,17.90
2023-03-05T22:33:11.357Z,13.83
2023-03-05T22:35:41.835Z,14.83
2023-03-05T22:38:11.609Z,16.90
2023-03-05T22:40:45.840Z,23.20
2023-03-05T22:43:13.590Z,13.40
2023-03-05T22:45:40.513Z,21.10
2023-03-05T22:48:09.764Z,16.13
2023-03-05T22:50:38.202Z,16.73
2023-03-05T22:53:05.085Z,16.07
2023-03-05T22:55:31.802Z,19.40
2023-03-05T22:57:58.597Z,19.27
